DEGAL EDDR-EDLH
Flight info
| Callsign | DEGAL |
|---|---|
| Flight time | 1h 10m |
| Altitude | 3000 |
| Route | DCT COL |
| Aircraft | C208/L-SDLY/S |
Departure
| Time | 2026-04-26 14:38 |
|---|---|
| Airport | Saarbrücken Airport (EDDR) |
Arrival
| Time | 2026-04-26 15:49 |
|---|---|
| Airport | Hamm-Lippewiesen Airfield (EDLH) |
| Time | Latitude | Longitude | Altitude | Speed | Heading |
|---|---|---|---|---|---|
| 2026-04-26 14:29 | 49.21706 | 7.10862 | 1062 ft | 0 kts | 356° |
| 2026-04-26 14:34 | 49.21716 | 7.10876 | 1062 ft | 8 kts | 67° |
| 2026-04-26 14:34 | 49.21746 | 7.11006 | 1062 ft | 15 kts | 69° |
| 2026-04-26 14:34 | 49.21764 | 7.11153 | 1062 ft | 14 kts | 129° |
| 2026-04-26 14:35 | 49.21683 | 7.11130 | 1062 ft | 13 kts | 206° |
| 2026-04-26 14:35 | 49.21583 | 7.11076 | 1061 ft | 18 kts | 198° |
| 2026-04-26 14:35 | 49.21468 | 7.11072 | 1061 ft | 15 kts | 129° |
| 2026-04-26 14:35 | 49.21462 | 7.11223 | 1063 ft | 17 kts | 84° |
| 2026-04-26 14:36 | 49.21465 | 7.11436 | 1064 ft | 21 kts | 105° |
| 2026-04-26 14:36 | 49.21469 | 7.11511 | 1064 ft | 6 kts | 269° |
| 2026-04-26 14:36 | 49.21469 | 7.11493 | 1064 ft | 0 kts | 274° |
| 2026-04-26 14:37 | 49.21472 | 7.11385 | 1064 ft | 30 kts | 270° |
| 2026-04-26 14:37 | 49.21457 | 7.10847 | 1053 ft | 70 kts | 264° |
| 2026-04-26 14:37 | 49.21466 | 7.09986 | 1136 ft | 87 kts | 278° |
| 2026-04-26 14:38 | 49.21537 | 7.09038 | 1282 ft | 97 kts | 281° |
| 2026-04-26 14:38 | 49.21815 | 7.08102 | 1370 ft | 103 kts | 329° |
| 2026-04-26 14:38 | 49.22489 | 7.07713 | 1570 ft | 105 kts | 349° |
| 2026-04-26 14:38 | 49.23198 | 7.07819 | 1781 ft | 105 kts | 18° |
| 2026-04-26 14:39 | 49.23932 | 7.08151 | 1905 ft | 117 kts | 21° |
| 2026-04-26 14:39 | 49.24716 | 7.08626 | 1955 ft | 128 kts | 24° |
| 2026-04-26 14:39 | 49.25610 | 7.08715 | 1970 ft | 137 kts | 341° |
| 2026-04-26 14:39 | 49.26440 | 7.08054 | 2178 ft | 133 kts | 341° |
| 2026-04-26 14:40 | 49.27323 | 7.07721 | 2358 ft | 130 kts | 349° |
| 2026-04-26 14:40 | 49.28208 | 7.07518 | 2512 ft | 128 kts | 356° |
| 2026-04-26 14:40 | 49.29092 | 7.07435 | 2746 ft | 127 kts | 0° |
| 2026-04-26 14:40 | 49.29980 | 7.07419 | 2877 ft | 129 kts | 2° |
| 2026-04-26 14:41 | 49.30905 | 7.07424 | 2963 ft | 137 kts | 1° |
| 2026-04-26 14:41 | 49.31889 | 7.07385 | 3035 ft | 146 kts | 358° |
| 2026-04-26 14:41 | 49.32911 | 7.07090 | 3029 ft | 153 kts | 345° |
| 2026-04-26 14:41 | 49.33917 | 7.06555 | 2984 ft | 155 kts | 341° |
| 2026-04-26 14:42 | 49.34896 | 7.05884 | 2975 ft | 154 kts | 331° |
| 2026-04-26 14:42 | 49.35741 | 7.04854 | 3005 ft | 157 kts | 318° |
| 2026-04-26 14:42 | 49.36464 | 7.03598 | 2998 ft | 158 kts | 311° |
| 2026-04-26 14:42 | 49.37052 | 7.02162 | 3000 ft | 162 kts | 292° |
| 2026-04-26 14:43 | 49.37286 | 7.00473 | 3005 ft | 163 kts | 286° |
| 2026-04-26 14:43 | 49.37932 | 6.99118 | 3000 ft | 161 kts | 331° |
| 2026-04-26 14:43 | 49.38978 | 6.98492 | 2982 ft | 162 kts | 342° |
| 2026-04-26 14:43 | 49.40006 | 6.97935 | 3116 ft | 150 kts | 342° |
| 2026-04-26 14:44 | 49.40968 | 6.97425 | 3288 ft | 143 kts | 343° |
| 2026-04-26 14:44 | 49.41911 | 6.97013 | 3459 ft | 139 kts | 355° |
| 2026-04-26 14:44 | 49.42862 | 6.97139 | 3654 ft | 136 kts | 10° |
| 2026-04-26 14:44 | 49.43802 | 6.97384 | 3898 ft | 138 kts | 11° |
| 2026-04-26 14:45 | 49.44762 | 6.97684 | 4007 ft | 144 kts | 18° |
| 2026-04-26 14:45 | 49.45337 | 6.98210 | 4032 ft | 148 kts | 42° |
| 2026-04-26 14:45 | 49.46362 | 6.99631 | 4027 ft | 151 kts | 39° |
| 2026-04-26 14:45 | 49.47186 | 7.00674 | 4090 ft | 155 kts | 38° |
| 2026-04-26 14:46 | 49.48026 | 7.01714 | 4030 ft | 154 kts | 38° |
| 2026-04-26 14:46 | 49.48885 | 7.02663 | 4002 ft | 150 kts | 29° |
| 2026-04-26 14:46 | 49.49829 | 7.03308 | 3994 ft | 148 kts | 18° |
| 2026-04-26 14:46 | 49.50841 | 7.03636 | 4022 ft | 149 kts | 6° |
| 2026-04-26 14:47 | 49.51888 | 7.03627 | 4089 ft | 154 kts | 356° |
| 2026-04-26 14:47 | 49.52920 | 7.03145 | 4103 ft | 159 kts | 334° |
| 2026-04-26 14:47 | 49.53911 | 7.02392 | 4073 ft | 159 kts | 336° |
| 2026-04-26 14:47 | 49.54888 | 7.01676 | 4025 ft | 156 kts | 336° |
| 2026-04-26 14:48 | 49.55875 | 7.00998 | 4019 ft | 154 kts | 338° |
| 2026-04-26 14:48 | 49.56858 | 7.00361 | 4002 ft | 152 kts | 339° |
| 2026-04-26 14:48 | 49.57836 | 6.99745 | 4018 ft | 152 kts | 339° |
| 2026-04-26 14:48 | 49.58812 | 6.99134 | 4031 ft | 151 kts | 339° |
| 2026-04-26 14:49 | 49.59785 | 6.98530 | 4015 ft | 150 kts | 339° |
| 2026-04-26 14:49 | 49.60746 | 6.97937 | 3993 ft | 147 kts | 339° |
| 2026-04-26 14:49 | 49.61692 | 6.97346 | 3997 ft | 145 kts | 339° |
| 2026-04-26 14:49 | 49.62628 | 6.96759 | 3994 ft | 144 kts | 339° |
| 2026-04-26 14:50 | 49.63555 | 6.96181 | 3996 ft | 144 kts | 339° |
| 2026-04-26 14:50 | 49.64481 | 6.95605 | 3999 ft | 144 kts | 339° |
| 2026-04-26 14:50 | 49.65397 | 6.95034 | 4002 ft | 144 kts | 339° |
| 2026-04-26 14:50 | 49.66106 | 6.94595 | 4055 ft | 148 kts | 339° |
| 2026-04-26 14:51 | 49.67021 | 6.94027 | 4066 ft | 152 kts | 339° |
| 2026-04-26 14:51 | 49.68010 | 6.93415 | 4038 ft | 153 kts | 339° |
| 2026-04-26 14:51 | 49.68992 | 6.92810 | 4014 ft | 151 kts | 340° |
| 2026-04-26 14:51 | 49.69986 | 6.92335 | 4007 ft | 148 kts | 347° |
| 2026-04-26 14:52 | 49.70992 | 6.91979 | 4015 ft | 148 kts | 349° |
| 2026-04-26 14:52 | 49.72004 | 6.91642 | 4025 ft | 149 kts | 349° |
| 2026-04-26 14:52 | 49.73037 | 6.91325 | 4076 ft | 153 kts | 350° |
| 2026-04-26 14:52 | 49.74090 | 6.91022 | 4053 ft | 154 kts | 350° |
| 2026-04-26 14:53 | 49.75142 | 6.90734 | 4027 ft | 153 kts | 351° |
| 2026-04-26 14:53 | 49.76183 | 6.90470 | 4003 ft | 150 kts | 352° |
| 2026-04-26 14:53 | 49.77208 | 6.90220 | 4015 ft | 149 kts | 352° |
| 2026-04-26 14:53 | 49.78229 | 6.89982 | 4049 ft | 151 kts | 353° |
| 2026-04-26 14:54 | 49.79273 | 6.89868 | 4020 ft | 150 kts | 1° |
| 2026-04-26 14:54 | 49.80302 | 6.90031 | 3999 ft | 148 kts | 13° |
| 2026-04-26 14:54 | 49.81254 | 6.90586 | 3997 ft | 146 kts | 30° |
| 2026-04-26 14:54 | 49.82076 | 6.91504 | 3994 ft | 144 kts | 38° |
| 2026-04-26 14:55 | 49.82860 | 6.92522 | 4094 ft | 150 kts | 40° |
| 2026-04-26 14:55 | 49.83642 | 6.93599 | 4065 ft | 153 kts | 41° |
| 2026-04-26 14:55 | 49.84415 | 6.94737 | 4028 ft | 152 kts | 43° |
| 2026-04-26 14:55 | 49.85131 | 6.95935 | 4015 ft | 151 kts | 48° |
| 2026-04-26 14:56 | 49.85800 | 6.97191 | 4056 ft | 151 kts | 49° |
| 2026-04-26 14:56 | 49.86451 | 6.98489 | 4057 ft | 153 kts | 51° |
| 2026-04-26 14:56 | 49.87051 | 6.99841 | 4034 ft | 152 kts | 57° |
| 2026-04-26 14:56 | 49.87566 | 7.01263 | 4027 ft | 151 kts | 61° |
| 2026-04-26 14:57 | 49.88022 | 7.02724 | 4023 ft | 150 kts | 64° |
| 2026-04-26 14:57 | 49.88444 | 7.04207 | 4027 ft | 150 kts | 65° |
| 2026-04-26 14:57 | 49.88868 | 7.05708 | 4080 ft | 154 kts | 65° |
| 2026-04-26 14:57 | 49.89308 | 7.07225 | 4054 ft | 154 kts | 63° |
| 2026-04-26 14:58 | 49.89792 | 7.08710 | 4075 ft | 155 kts | 59° |
| 2026-04-26 14:58 | 49.90372 | 7.10108 | 4038 ft | 153 kts | 53° |
| 2026-04-26 14:58 | 49.91000 | 7.11410 | 4032 ft | 150 kts | 50° |
| 2026-04-26 14:58 | 49.91645 | 7.12677 | 4025 ft | 149 kts | 50° |
| 2026-04-26 14:59 | 49.92285 | 7.13910 | 4025 ft | 149 kts | 49° |
| 2026-04-26 14:59 | 49.92936 | 7.15155 | 4014 ft | 148 kts | 49° |
| 2026-04-26 14:59 | 49.93661 | 7.16257 | 4017 ft | 145 kts | 29° |
| 2026-04-26 14:59 | 49.94260 | 7.16720 | 4012 ft | 145 kts | 24° |
| 2026-04-26 15:00 | 49.95510 | 7.17454 | 4004 ft | 142 kts | 17° |
| 2026-04-26 15:00 | 49.96458 | 7.17888 | 4014 ft | 142 kts | 15° |
| 2026-04-26 15:00 | 49.97412 | 7.18297 | 4011 ft | 142 kts | 14° |
| 2026-04-26 15:00 | 49.98367 | 7.18694 | 4017 ft | 142 kts | 14° |
| 2026-04-26 15:01 | 49.99327 | 7.19089 | 4037 ft | 144 kts | 15° |
| 2026-04-26 15:01 | 50.00296 | 7.19485 | 4050 ft | 147 kts | 14° |
| 2026-04-26 15:01 | 50.01288 | 7.19890 | 4037 ft | 147 kts | 14° |
| 2026-04-26 15:01 | 50.02282 | 7.20295 | 4034 ft | 148 kts | 14° |
| 2026-04-26 15:02 | 50.03278 | 7.20704 | 4016 ft | 147 kts | 14° |
| 2026-04-26 15:02 | 50.04262 | 7.21109 | 4011 ft | 145 kts | 14° |
| 2026-04-26 15:02 | 50.05227 | 7.21527 | 4005 ft | 143 kts | 15° |
| 2026-04-26 15:02 | 50.06186 | 7.21968 | 4035 ft | 144 kts | 15° |
| 2026-04-26 15:03 | 50.07153 | 7.22427 | 4094 ft | 150 kts | 17° |
| 2026-04-26 15:03 | 50.07841 | 7.22804 | 4121 ft | 153 kts | 20° |
| 2026-04-26 15:03 | 50.08832 | 7.23451 | 4139 ft | 155 kts | 22° |
| 2026-04-26 15:03 | 50.09819 | 7.24150 | 4110 ft | 156 kts | 24° |
| 2026-04-26 15:04 | 50.10785 | 7.24881 | 4068 ft | 153 kts | 25° |
| 2026-04-26 15:04 | 50.11724 | 7.25617 | 4047 ft | 150 kts | 26° |
| 2026-04-26 15:04 | 50.12636 | 7.26348 | 4033 ft | 146 kts | 26° |
| 2026-04-26 15:04 | 50.13531 | 7.27068 | 4043 ft | 144 kts | 24° |
| 2026-04-26 15:05 | 50.14482 | 7.27497 | 4052 ft | 143 kts | 9° |
| 2026-04-26 15:05 | 50.14814 | 7.27581 | 4051 ft | 143 kts | 8° |
| 2026-04-26 15:05 | 50.16451 | 7.28031 | 4083 ft | 146 kts | 17° |
| 2026-04-26 15:05 | 50.17423 | 7.28547 | 4092 ft | 149 kts | 19° |
| 2026-04-26 15:06 | 50.18075 | 7.28919 | 4103 ft | 151 kts | 18° |
| 2026-04-26 15:06 | 50.19417 | 7.29577 | 4085 ft | 152 kts | 15° |
| 2026-04-26 15:06 | 50.20423 | 7.30054 | 4058 ft | 150 kts | 16° |
| 2026-04-26 15:06 | 50.21420 | 7.30559 | 4088 ft | 152 kts | 17° |
| 2026-04-26 15:07 | 50.23095 | 7.31404 | 4058 ft | 151 kts | 15° |
| 2026-04-26 15:07 | 50.24107 | 7.31902 | 4066 ft | 153 kts | 17° |
| 2026-04-26 15:07 | 50.25127 | 7.32422 | 4053 ft | 155 kts | 17° |
| 2026-04-26 15:08 | 50.26147 | 7.32934 | 4037 ft | 153 kts | 16° |
| 2026-04-26 15:08 | 50.27163 | 7.33437 | 4055 ft | 154 kts | 17° |
| 2026-04-26 15:08 | 50.28188 | 7.33953 | 4043 ft | 155 kts | 17° |
| 2026-04-26 15:08 | 50.29199 | 7.34462 | 3974 ft | 155 kts | 16° |
| 2026-04-26 15:09 | 50.30247 | 7.34985 | 3869 ft | 161 kts | 17° |
| 2026-04-26 15:09 | 50.31336 | 7.35532 | 3722 ft | 165 kts | 17° |
| 2026-04-26 15:09 | 50.32438 | 7.36090 | 3593 ft | 168 kts | 17° |
| 2026-04-26 15:09 | 50.33556 | 7.36648 | 3423 ft | 168 kts | 18° |
| 2026-04-26 15:10 | 50.34668 | 7.37215 | 3241 ft | 168 kts | 18° |
| 2026-04-26 15:10 | 50.35401 | 7.37587 | 3158 ft | 166 kts | 18° |
| 2026-04-26 15:10 | 50.36864 | 7.38319 | 3085 ft | 163 kts | 18° |
| 2026-04-26 15:10 | 50.37919 | 7.38852 | 3082 ft | 157 kts | 17° |
| 2026-04-26 15:11 | 50.38951 | 7.39373 | 3065 ft | 154 kts | 17° |
| 2026-04-26 15:11 | 50.39960 | 7.39876 | 3038 ft | 150 kts | 17° |
| 2026-04-26 15:11 | 50.40941 | 7.40383 | 3046 ft | 147 kts | 20° |
| 2026-04-26 15:11 | 50.41733 | 7.41352 | 3080 ft | 150 kts | 49° |
| 2026-04-26 15:12 | 50.42419 | 7.42605 | 3094 ft | 153 kts | 47° |
| 2026-04-26 15:12 | 50.43238 | 7.43691 | 3079 ft | 156 kts | 33° |
| 2026-04-26 15:12 | 50.44181 | 7.44542 | 3032 ft | 157 kts | 26° |
| 2026-04-26 15:12 | 50.45161 | 7.45243 | 3008 ft | 153 kts | 22° |
| 2026-04-26 15:13 | 50.46150 | 7.45878 | 3006 ft | 154 kts | 21° |
| 2026-04-26 15:13 | 50.47164 | 7.46373 | 2991 ft | 151 kts | 13° |
| 2026-04-26 15:13 | 50.48183 | 7.46743 | 2992 ft | 150 kts | 12° |
| 2026-04-26 15:13 | 50.49188 | 7.47121 | 2988 ft | 148 kts | 15° |
| 2026-04-26 15:14 | 50.50175 | 7.47560 | 2987 ft | 146 kts | 15° |
| 2026-04-26 15:14 | 50.51147 | 7.47986 | 2987 ft | 144 kts | 14° |
| 2026-04-26 15:14 | 50.52112 | 7.48377 | 3003 ft | 143 kts | 13° |
| 2026-04-26 15:14 | 50.53081 | 7.48777 | 3074 ft | 148 kts | 14° |
| 2026-04-26 15:15 | 50.54083 | 7.49203 | 3044 ft | 149 kts | 14° |
| 2026-04-26 15:15 | 50.55087 | 7.49625 | 3020 ft | 149 kts | 14° |
| 2026-04-26 15:15 | 50.56085 | 7.50038 | 3011 ft | 148 kts | 14° |
| 2026-04-26 15:15 | 50.57078 | 7.50456 | 3039 ft | 148 kts | 14° |
| 2026-04-26 15:16 | 50.58078 | 7.50879 | 3034 ft | 149 kts | 14° |
| 2026-04-26 15:16 | 50.59089 | 7.51297 | 3044 ft | 151 kts | 14° |
| 2026-04-26 15:16 | 50.60107 | 7.51725 | 3051 ft | 152 kts | 14° |
| 2026-04-26 15:16 | 50.61139 | 7.52165 | 3084 ft | 154 kts | 14° |
| 2026-04-26 15:17 | 50.62171 | 7.52597 | 3042 ft | 153 kts | 14° |
| 2026-04-26 15:17 | 50.62852 | 7.52883 | 3047 ft | 153 kts | 14° |
| 2026-04-26 15:17 | 50.64231 | 7.53459 | 3077 ft | 155 kts | 15° |
| 2026-04-26 15:17 | 50.65269 | 7.53902 | 3050 ft | 154 kts | 14° |
| 2026-04-26 15:18 | 50.66284 | 7.54325 | 3023 ft | 151 kts | 14° |
| 2026-04-26 15:18 | 50.67297 | 7.54748 | 3025 ft | 150 kts | 14° |
| 2026-04-26 15:18 | 50.68315 | 7.55178 | 3078 ft | 153 kts | 14° |
| 2026-04-26 15:18 | 50.69345 | 7.55610 | 3058 ft | 154 kts | 15° |
| 2026-04-26 15:19 | 50.70382 | 7.56055 | 3037 ft | 155 kts | 15° |
| 2026-04-26 15:19 | 50.71426 | 7.56497 | 3013 ft | 155 kts | 14° |
| 2026-04-26 15:19 | 50.72465 | 7.56927 | 3010 ft | 154 kts | 14° |
| 2026-04-26 15:19 | 50.73501 | 7.57365 | 3000 ft | 154 kts | 14° |
| 2026-04-26 15:20 | 50.74524 | 7.57805 | 3012 ft | 152 kts | 14° |
| 2026-04-26 15:20 | 50.75552 | 7.58231 | 2995 ft | 151 kts | 14° |
| 2026-04-26 15:20 | 50.76574 | 7.58661 | 3006 ft | 153 kts | 14° |
| 2026-04-26 15:20 | 50.77601 | 7.59102 | 3018 ft | 153 kts | 15° |
| 2026-04-26 15:21 | 50.78622 | 7.59550 | 3000 ft | 154 kts | 14° |
| 2026-04-26 15:21 | 50.79647 | 7.60001 | 2980 ft | 152 kts | 15° |
| 2026-04-26 15:21 | 50.80663 | 7.60415 | 2998 ft | 150 kts | 13° |
| 2026-04-26 15:21 | 50.81681 | 7.60814 | 3030 ft | 151 kts | 14° |
| 2026-04-26 15:22 | 50.82697 | 7.61257 | 3024 ft | 151 kts | 15° |
| 2026-04-26 15:22 | 50.83711 | 7.61697 | 3042 ft | 151 kts | 14° |
| 2026-04-26 15:22 | 50.84738 | 7.62125 | 3057 ft | 153 kts | 14° |
| 2026-04-26 15:22 | 50.85763 | 7.62554 | 3019 ft | 152 kts | 14° |
| 2026-04-26 15:23 | 50.86781 | 7.62991 | 3041 ft | 152 kts | 15° |
| 2026-04-26 15:23 | 50.87811 | 7.63429 | 3004 ft | 152 kts | 14° |
| 2026-04-26 15:23 | 50.88829 | 7.63858 | 3015 ft | 152 kts | 14° |
| 2026-04-26 15:23 | 50.89860 | 7.64298 | 3025 ft | 154 kts | 14° |
| 2026-04-26 15:24 | 50.90896 | 7.64742 | 3003 ft | 154 kts | 14° |
| 2026-04-26 15:24 | 50.91929 | 7.65179 | 2997 ft | 153 kts | 14° |
| 2026-04-26 15:24 | 50.92951 | 7.65611 | 2986 ft | 150 kts | 14° |
| 2026-04-26 15:24 | 50.93943 | 7.66035 | 3011 ft | 150 kts | 15° |
| 2026-04-26 15:25 | 50.94949 | 7.66466 | 3012 ft | 149 kts | 14° |
| 2026-04-26 15:25 | 50.95624 | 7.66754 | 2998 ft | 148 kts | 14° |
| 2026-04-26 15:25 | 50.96934 | 7.67309 | 3012 ft | 148 kts | 14° |
| 2026-04-26 15:25 | 50.97938 | 7.67737 | 3051 ft | 150 kts | 14° |
| 2026-04-26 15:26 | 50.98951 | 7.68174 | 3021 ft | 150 kts | 15° |
| 2026-04-26 15:26 | 50.99959 | 7.68605 | 3009 ft | 149 kts | 14° |
| 2026-04-26 15:26 | 51.00957 | 7.69026 | 3001 ft | 148 kts | 14° |
| 2026-04-26 15:26 | 51.01947 | 7.69447 | 3001 ft | 146 kts | 15° |
| 2026-04-26 15:27 | 51.02916 | 7.69868 | 3013 ft | 146 kts | 15° |
| 2026-04-26 15:27 | 51.03893 | 7.70283 | 3082 ft | 141 kts | 14° |
| 2026-04-26 15:27 | 51.04820 | 7.70671 | 3277 ft | 135 kts | 15° |
| 2026-04-26 15:27 | 51.05710 | 7.71057 | 3454 ft | 131 kts | 15° |
| 2026-04-26 15:28 | 51.06539 | 7.71418 | 3631 ft | 113 kts | 14° |
| 2026-04-26 15:28 | 51.07240 | 7.71720 | 3819 ft | 98 kts | 13° |
| 2026-04-26 15:28 | 51.07900 | 7.71994 | 3977 ft | 99 kts | 14° |
| 2026-04-26 15:28 | 51.08572 | 7.72280 | 3990 ft | 101 kts | 15° |
| 2026-04-26 15:29 | 51.09253 | 7.72580 | 3995 ft | 102 kts | 15° |
| 2026-04-26 15:29 | 51.09954 | 7.72890 | 4031 ft | 106 kts | 15° |
| 2026-04-26 15:29 | 51.11398 | 7.73495 | 4035 ft | 109 kts | 15° |
| 2026-04-26 15:30 | 51.12874 | 7.74129 | 4010 ft | 109 kts | 15° |
| 2026-04-26 15:30 | 51.13599 | 7.74446 | 3999 ft | 107 kts | 15° |
| 2026-04-26 15:30 | 51.14307 | 7.74750 | 4002 ft | 106 kts | 14° |
| 2026-04-26 15:31 | 51.15021 | 7.75054 | 4006 ft | 106 kts | 14° |
| 2026-04-26 15:31 | 51.16477 | 7.75683 | 3999 ft | 117 kts | 15° |
| 2026-04-26 15:31 | 51.17313 | 7.76042 | 4004 ft | 130 kts | 15° |
| 2026-04-26 15:32 | 51.18835 | 7.76697 | 4041 ft | 142 kts | 15° |
| 2026-04-26 15:32 | 51.20141 | 7.77255 | 4019 ft | 147 kts | 14° |
| 2026-04-26 15:32 | 51.21130 | 7.77680 | 4031 ft | 148 kts | 14° |
| 2026-04-26 15:33 | 51.22137 | 7.78118 | 4033 ft | 150 kts | 15° |
| 2026-04-26 15:33 | 51.23146 | 7.78553 | 4020 ft | 150 kts | 15° |
| 2026-04-26 15:33 | 51.24151 | 7.78985 | 4014 ft | 149 kts | 15° |
| 2026-04-26 15:33 | 51.25138 | 7.79412 | 4016 ft | 149 kts | 15° |
| 2026-04-26 15:34 | 51.26140 | 7.79846 | 4023 ft | 149 kts | 15° |
| 2026-04-26 15:34 | 51.27139 | 7.80278 | 4014 ft | 148 kts | 15° |
| 2026-04-26 15:34 | 51.28127 | 7.80703 | 4009 ft | 146 kts | 15° |
| 2026-04-26 15:34 | 51.29106 | 7.81126 | 4038 ft | 147 kts | 15° |
| 2026-04-26 15:35 | 51.30106 | 7.81559 | 4042 ft | 150 kts | 15° |
| 2026-04-26 15:35 | 51.31118 | 7.81994 | 4017 ft | 151 kts | 15° |
| 2026-04-26 15:35 | 51.32126 | 7.82432 | 4017 ft | 150 kts | 15° |
| 2026-04-26 15:35 | 51.33122 | 7.82867 | 4014 ft | 150 kts | 15° |
| 2026-04-26 15:36 | 51.34123 | 7.83298 | 4002 ft | 148 kts | 15° |
| 2026-04-26 15:36 | 51.35108 | 7.83730 | 4007 ft | 146 kts | 15° |
| 2026-04-26 15:36 | 51.36083 | 7.84163 | 4007 ft | 145 kts | 15° |
| 2026-04-26 15:36 | 51.37052 | 7.84593 | 4014 ft | 144 kts | 15° |
| 2026-04-26 15:37 | 51.38018 | 7.85023 | 4016 ft | 144 kts | 15° |
| 2026-04-26 15:37 | 51.38987 | 7.85456 | 4023 ft | 145 kts | 15° |
| 2026-04-26 15:37 | 51.39960 | 7.85901 | 4023 ft | 145 kts | 17° |
| 2026-04-26 15:37 | 51.40931 | 7.86385 | 3980 ft | 148 kts | 18° |
| 2026-04-26 15:38 | 51.41935 | 7.86905 | 3846 ft | 154 kts | 18° |
| 2026-04-26 15:38 | 51.42961 | 7.87446 | 3717 ft | 156 kts | 19° |
| 2026-04-26 15:38 | 51.43990 | 7.88028 | 3583 ft | 157 kts | 20° |
| 2026-04-26 15:38 | 51.45006 | 7.88632 | 3449 ft | 158 kts | 21° |
| 2026-04-26 15:39 | 51.46031 | 7.89254 | 3313 ft | 155 kts | 21° |
| 2026-04-26 15:39 | 51.47031 | 7.89861 | 3223 ft | 153 kts | 21° |
| 2026-04-26 15:39 | 51.48025 | 7.90467 | 3136 ft | 152 kts | 21° |
| 2026-04-26 15:39 | 51.48690 | 7.90871 | 3051 ft | 151 kts | 21° |
| 2026-04-26 15:40 | 51.49991 | 7.91604 | 2863 ft | 148 kts | 19° |
| 2026-04-26 15:40 | 51.50963 | 7.92068 | 2716 ft | 146 kts | 15° |
| 2026-04-26 15:40 | 51.51951 | 7.92424 | 2612 ft | 147 kts | 13° |
| 2026-04-26 15:40 | 51.52963 | 7.92740 | 2563 ft | 148 kts | 12° |
| 2026-04-26 15:41 | 51.53973 | 7.93039 | 2456 ft | 148 kts | 11° |
| 2026-04-26 15:41 | 51.54995 | 7.93341 | 2365 ft | 150 kts | 12° |
| 2026-04-26 15:41 | 51.56026 | 7.93644 | 2198 ft | 150 kts | 11° |
| 2026-04-26 15:41 | 51.57052 | 7.93917 | 2114 ft | 148 kts | 10° |
| 2026-04-26 15:42 | 51.58052 | 7.94163 | 2058 ft | 145 kts | 9° |
| 2026-04-26 15:42 | 51.59012 | 7.94382 | 2068 ft | 133 kts | 9° |
| 2026-04-26 15:42 | 51.59901 | 7.94570 | 2040 ft | 124 kts | 9° |
| 2026-04-26 15:42 | 51.60737 | 7.94743 | 2063 ft | 119 kts | 11° |
| 2026-04-26 15:43 | 51.61558 | 7.94910 | 2047 ft | 118 kts | 9° |
| 2026-04-26 15:43 | 51.62361 | 7.95082 | 2035 ft | 116 kts | 9° |
| 2026-04-26 15:43 | 51.63922 | 7.95377 | 2011 ft | 110 kts | 7° |
| 2026-04-26 15:44 | 51.64661 | 7.95506 | 2046 ft | 109 kts | 9° |
| 2026-04-26 15:44 | 51.66224 | 7.95809 | 2046 ft | 116 kts | 9° |
| 2026-04-26 15:44 | 51.67026 | 7.95963 | 2028 ft | 113 kts | 8° |
| 2026-04-26 15:45 | 51.68465 | 7.95656 | 2003 ft | 113 kts | 321° |
| 2026-04-26 15:45 | 51.68981 | 7.94672 | 1986 ft | 111 kts | 311° |
| 2026-04-26 15:46 | 51.69767 | 7.92607 | 1798 ft | 104 kts | 292° |
| 2026-04-26 15:46 | 51.69973 | 7.91520 | 1690 ft | 99 kts | 288° |
| 2026-04-26 15:46 | 51.70116 | 7.90435 | 1515 ft | 96 kts | 284° |
| 2026-04-26 15:46 | 51.70158 | 7.90101 | 1471 ft | 93 kts | 285° |
| 2026-04-26 15:47 | 51.70339 | 7.88531 | 1275 ft | 81 kts | 281° |
| 2026-04-26 15:47 | 51.70421 | 7.86814 | 924 ft | 76 kts | 268° |
| 2026-04-26 15:47 | 51.70374 | 7.85944 | 784 ft | 78 kts | 263° |
| 2026-04-26 15:48 | 51.70241 | 7.85088 | 690 ft | 79 kts | 249° |
| 2026-04-26 15:48 | 51.69968 | 7.84301 | 595 ft | 84 kts | 237° |
| 2026-04-26 15:48 | 51.69642 | 7.83487 | 480 ft | 89 kts | 239° |
| 2026-04-26 15:48 | 51.69328 | 7.82608 | 268 ft | 88 kts | 240° |
| 2026-04-26 15:49 | 51.69054 | 7.81867 | 193 ft | 55 kts | 238° |
| 2026-04-26 15:49 | 51.68942 | 7.81570 | 189 ft | 18 kts | 239° |
| 2026-04-26 15:49 | 51.68904 | 7.81464 | 190 ft | 4 kts | 256° |
| 2026-04-26 15:49 | 51.68920 | 7.81434 | 197 ft | 5 kts | 331° |
| 2026-04-26 15:50 | 51.68952 | 7.81388 | 192 ft | 6 kts | 326° |
| 2026-04-26 15:50 | 51.68966 | 7.81376 | 187 ft | 0 kts | 328° |
| 2026-04-26 15:50 | 51.70100 | 7.84644 | 651 ft | 80 kts | 239° |
| 2026-04-26 15:50 | 51.69783 | 7.83851 | 524 ft | 87 kts | 238° |
| 2026-04-26 15:51 | 51.69471 | 7.82999 | 368 ft | 92 kts | 242° |
| 2026-04-26 15:51 | 51.69168 | 7.82164 | 195 ft | 77 kts | 239° |
| 2026-04-26 15:51 | 51.69028 | 7.81799 | 192 ft | 40 kts | 238° |
| 2026-04-26 15:51 | 51.69272 | 7.82451 | 232 ft | 86 kts | 244° |
| 2026-04-26 15:52 | 51.68915 | 7.81439 | 189 ft | 4 kts | 331° |
| 2026-04-26 15:52 | 51.68945 | 7.81397 | 188 ft | 7 kts | 313° |
| 2026-04-26 15:52 | 51.68966 | 7.81376 | 188 ft | 0 kts | 328° |